Time;durP1;ratioP1;P1;durP2;ratioP2;P2;SDS_P1;SDS_P2;PMS_P1;PMS_P2;Temp;Humidity;BMP_temperature;BMP_pressure;BME280_temperature;BME280_humidity;BME280_pressure;Samples;Min_cycle;Max_cycle;Signal;HPM_P1;HPM_P2
2023/09/18 00:00:39;;;;;;;107.28;85.70;;;16.50;99.90;;;;;;6133708;23;20005;-85
2023/09/18 00:03:04;;;;;;;107.97;87.00;;;16.50;99.90;;;;;;6134121;23;20075;-85
2023/09/18 00:05:31;;;;;;;98.07;79.25;;;16.60;99.90;;;;;;6133710;23;20017;-85
2023/09/18 00:07:56;;;;;;;85.88;76.68;;;16.60;99.90;;;;;;6133114;23;20064;-85
2023/09/18 00:10:22;;;;;;;82.45;73.43;;;16.60;99.90;;;;;;6133630;23;20021;-85
2023/09/18 00:12:47;;;;;;;131.48;87.78;;;16.60;99.90;;;;;;6158624;23;20517;-85
2023/09/18 00:15:13;;;;;;;100.72;75.40;;;16.60;99.90;;;;;;6157339;23;20067;-84
2023/09/18 00:17:39;;;;;;;146.93;87.45;;;16.60;99.90;;;;;;6134156;23;20071;-85
2023/09/18 00:20:06;;;;;;;97.72;76.85;;;16.60;99.90;;;;;;6134190;23;20088;-85
2023/09/18 00:22:32;;;;;;;72.57;60.38;;;16.50;99.90;;;;;;6158276;23;20135;-85
2023/09/18 00:24:58;;;;;;;89.65;66.07;;;16.50;99.90;;;;;;6133156;23;20037;-84
2023/09/18 00:27:23;;;;;;;78.22;56.15;;;16.40;99.90;;;;;;6133589;23;20015;-84
2023/09/18 00:29:49;;;;;;;54.20;45.88;;;16.40;99.90;;;;;;6157969;23;20012;-84
2023/09/18 00:32:14;;;;;;;78.40;69.88;;;16.40;99.90;;;;;;6158545;23;20380;-84
2023/09/18 00:34:40;;;;;;;142.52;80.40;;;16.30;99.90;;;;;;6133125;23;20037;-84
2023/09/18 00:37:05;;;;;;;71.20;63.45;;;16.40;99.90;;;;;;6133874;23;20016;-84
2023/09/18 00:39:31;;;;;;;111.80;57.05;;;16.40;99.90;;;;;;6133887;23;20013;-84
2023/09/18 00:41:57;;;;;;;72.82;65.30;;;16.40;99.90;;;;;;6133812;23;20013;-85
2023/09/18 00:44:23;;;;;;;72.82;65.53;;;16.30;99.90;;;;;;6132855;23;20067;-84
2023/09/18 00:46:51;;;;;;;70.53;63.67;;;16.40;99.90;;;;;;6157905;23;20481;-85
2023/09/18 00:49:18;;;;;;;78.43;70.20;;;16.50;99.90;;;;;;6133705;23;20055;-84
2023/09/18 00:51:44;;;;;;;64.28;58.17;;;16.60;99.90;;;;;;6133708;23;20014;-84
2023/09/18 00:54:11;;;;;;;67.82;61.47;;;16.60;99.90;;;;;;6133227;23;20042;-84
2023/09/18 00:56:36;;;;;;;64.88;58.97;;;16.70;99.90;;;;;;6133223;23;20032;-85
2023/09/18 00:59:03;;;;;;;65.82;59.35;;;16.80;99.90;;;;;;6133095;23;20444;-85
2023/09/18 01:01:29;;;;;;;68.93;61.88;;;16.80;99.90;;;;;;6133592;23;20043;-85
2023/09/18 01:03:57;;;;;;;81.80;59.50;;;16.80;99.90;;;;;;6133686;23;20355;-85
2023/09/18 01:06:27;;;;;;;57.95;48.90;;;16.80;99.90;;;;;;6132388;23;20487;-84
2023/09/18 01:08:54;;;;;;;67.97;61.22;;;16.80;99.90;;;;;;6157753;23;20056;-85
2023/09/18 01:11:24;;;;;;;72.85;64.78;;;16.70;99.90;;;;;;6157669;23;20017;-85
2023/09/18 01:14:03;;;;;;;75.85;68.28;;;16.70;99.90;;;;;;6158038;23;20013;-85
2023/09/18 01:16:36;;;;;;;65.40;59.50;;;16.70;99.90;;;;;;6157461;23;20084;-83
2023/09/18 01:19:03;;;;;;;63.50;57.65;;;16.90;99.90;;;;;;6133221;23;20045;-84
2023/09/18 01:21:29;;;;;;;77.05;69.25;;;16.90;99.90;;;;;;6133240;23;20009;-83
2023/09/18 01:23:54;;;;;;;76.10;68.28;;;17.00;99.90;;;;;;6133546;23;20088;-84
2023/09/18 01:26:20;;;;;;;93.07;69.40;;;17.00;99.90;;;;;;6157034;23;20117;-83
2023/09/18 01:28:45;;;;;;;74.30;66.85;;;17.00;99.90;;;;;;6157670;23;20008;-84
2023/09/18 01:31:11;;;;;;;70.03;62.55;;;16.90;99.90;;;;;;6158083;23;20039;-83
2023/09/18 01:33:38;;;;;;;75.93;67.70;;;16.90;99.90;;;;;;6133312;23;20013;-83
2023/09/18 01:36:07;;;;;;;69.47;62.85;;;16.90;99.90;;;;;;6132690;23;20016;-84
2023/09/18 01:38:33;;;;;;;88.20;68.50;;;16.80;99.90;;;;;;6133015;23;20059;-84
2023/09/18 01:41:00;;;;;;;58.92;53.85;;;16.80;99.90;;;;;;6157001;23;20096;-84
2023/09/18 01:43:26;;;;;;;79.03;69.95;;;16.80;99.90;;;;;;6132843;23;20056;-84
2023/09/18 01:45:52;;;;;;;72.03;64.53;;;16.90;99.90;;;;;;6157576;23;20369;-83
2023/09/18 01:48:18;;;;;;;71.10;63.28;;;16.90;99.90;;;;;;6132941;23;20013;-84
2023/09/18 01:50:44;;;;;;;80.32;68.10;;;16.90;99.90;;;;;;6182052;23;20460;-84
2023/09/18 01:53:09;;;;;;;70.03;63.17;;;16.80;99.90;;;;;;6132521;23;20020;-84
2023/09/18 01:55:35;;;;;;;70.20;62.50;;;16.90;99.90;;;;;;6132812;23;20327;-83
2023/09/18 01:58:01;;;;;;;70.97;64.63;;;16.80;99.90;;;;;;6132837;23;20101;-83
2023/09/18 02:00:26;;;;;;;70.03;62.75;;;16.80;99.90;;;;;;6132820;23;20009;-84
2023/09/18 02:02:52;;;;;;;69.20;62.63;;;16.80;99.90;;;;;;6132817;23;20020;-84
2023/09/18 02:05:17;;;;;;;72.50;65.03;;;16.80;99.90;;;;;;6132603;23;20087;-84
2023/09/18 02:07:43;;;;;;;76.13;68.13;;;16.80;99.90;;;;;;6181976;23;20115;-84
2023/09/18 02:10:08;;;;;;;70.53;63.95;;;16.80;99.90;;;;;;6133083;23;20020;-84
2023/09/18 02:12:34;;;;;;;68.35;62.28;;;16.80;99.90;;;;;;6133278;23;20017;-84
2023/09/18 02:15:04;;;;;;;94.00;76.78;;;16.80;99.90;;;;;;6132637;23;20013;-84
2023/09/18 02:17:30;;;;;;;79.13;71.32;;;16.90;99.90;;;;;;6133126;23;20013;-83
2023/09/18 02:19:56;;;;;;;61.20;55.78;;;17.00;99.90;;;;;;6132506;23;20020;-84
2023/09/18 02:22:21;;;;;;;66.00;60.00;;;17.00;99.90;;;;;;6157236;23;20469;-83
2023/09/18 02:24:47;;;;;;;69.55;62.63;;;17.00;99.90;;;;;;6157578;23;20005;-83
2023/09/18 02:27:12;;;;;;;66.93;60.58;;;17.10;99.90;;;;;;6132834;23;20096;-83
2023/09/18 02:29:38;;;;;;;77.50;69.03;;;17.10;99.90;;;;;;6132820;23;20045;-84
2023/09/18 02:32:03;;;;;;;79.00;66.22;;;17.10;99.90;;;;;;6133228;23;20035;-83
2023/09/18 02:34:29;;;;;;;79.90;64.57;;;17.10;99.90;;;;;;6133155;23;20040;-84
2023/09/18 02:36:55;;;;;;;67.70;60.95;;;17.10;99.90;;;;;;6131874;23;20009;-84
2023/09/18 02:39:20;;;;;;;61.33;55.85;;;17.00;99.90;;;;;;6134344;23;20357;-84
2023/09/18 02:41:46;;;;;;;61.90;56.33;;;17.00;99.90;;;;;;6134748;23;20451;-84
2023/09/18 02:44:12;;;;;;;62.38;56.88;;;17.10;99.90;;;;;;6135284;23;20445;-85
2023/09/18 02:46:38;;;;;;;60.97;55.08;;;17.10;99.90;;;;;;6134371;23;20449;-84
2023/09/18 02:49:04;;;;;;;77.10;63.33;;;17.20;99.90;;;;;;6135264;23;20045;-83
2023/09/18 02:51:31;;;;;;;65.10;58.53;;;17.10;99.90;;;;;;6159233;23;20012;-84
2023/09/18 02:53:57;;;;;;;72.85;63.70;;;17.10;99.90;;;;;;6134676;23;20084;-83
2023/09/18 02:56:22;;;;;;;63.25;57.28;;;17.10;99.90;;;;;;6134172;23;20063;-83
2023/09/18 02:58:48;;;;;;;64.03;57.95;;;17.10;99.90;;;;;;6134879;23;20068;-84
2023/09/18 03:01:14;;;;;;;55.33;50.55;;;17.10;99.90;;;;;;6135553;23;20104;-83
2023/09/18 03:03:41;;;;;;;66.07;59.30;;;17.10;99.90;;;;;;6135133;23;20013;-84
2023/09/18 03:06:07;;;;;;;78.35;62.78;;;17.10;99.90;;;;;;6134254;23;20359;-83
2023/09/18 03:08:33;;;;;;;65.40;58.92;;;17.10;99.90;;;;;;6158526;23;20053;-84
2023/09/18 03:10:59;;;;;;;70.85;63.45;;;17.10;99.90;;;;;;6134309;23;20009;-84
2023/09/18 03:13:27;;;;;;;64.30;57.80;;;17.10;99.90;;;;;;6134849;23;20327;-84
2023/09/18 03:15:53;;;;;;;92.40;69.30;;;17.10;99.90;;;;;;6159020;23;20349;-84
2023/09/18 03:18:18;;;;;;;66.72;59.67;;;17.10;99.90;;;;;;6134201;23;20013;-84
2023/09/18 03:20:45;;;;;;;66.53;59.85;;;17.10;99.90;;;;;;6159007;23;20009;-84
2023/09/18 03:23:10;;;;;;;51.50;47.10;;;17.10;99.90;;;;;;6159346;23;20490;-84
2023/09/18 03:25:39;;;;;;;52.95;48.47;;;17.20;99.90;;;;;;6134637;23;20016;-84
2023/09/18 03:28:05;;;;;;;57.65;52.28;;;17.20;99.90;;;;;;6134226;23;20013;-84
2023/09/18 03:30:31;;;;;;;47.30;43.30;;;17.30;99.90;;;;;;6134600;23;20063;-84
2023/09/18 03:32:57;;;;;;;45.55;41.78;;;17.40;99.90;;;;;;6158420;23;20062;-84
2023/09/18 03:35:22;;;;;;;46.45;42.53;;;17.40;99.90;;;;;;6133662;23;20013;-84
2023/09/18 03:37:50;;;;;;;46.35;42.50;;;17.50;99.90;;;;;;6135115;23;20013;-83
2023/09/18 03:40:18;;;;;;;44.20;40.58;;;17.50;99.90;;;;;;6134611;23;20016;-84
2023/09/18 03:42:45;;;;;;;48.95;44.65;;;17.50;99.90;;;;;;6134163;23;20013;-84
2023/09/18 03:45:11;;;;;;;43.90;40.33;;;17.60;99.90;;;;;;6133689;23;20013;-83
2023/09/18 03:47:41;;;;;;;39.17;36.17;;;17.60;99.90;;;;;;6134478;23;20024;-83
2023/09/18 03:50:09;;;;;;;40.63;37.13;;;17.60;99.90;;;;;;6134405;23;20058;-84
2023/09/18 03:52:35;;;;;;;36.45;33.60;;;17.60;99.90;;;;;;6158515;23;20450;-83
2023/09/18 03:55:01;;;;;;;44.75;40.80;;;17.60;99.90;;;;;;6158157;23;20016;-84
2023/09/18 03:57:27;;;;;;;40.60;37.17;;;17.60;99.90;;;;;;6159024;23;20013;-84
2023/09/18 03:59:52;;;;;;;43.47;39.70;;;17.60;99.90;;;;;;6161843;23;20013;-83
2023/09/18 04:02:18;;;;;;;38.92;35.72;;;17.60;99.90;;;;;;6133833;23;20016;-83
2023/09/18 04:04:43;;;;;;;37.05;34.03;;;17.60;99.90;;;;;;6133232;23;20009;-84
2023/09/18 04:07:09;;;;;;;35.67;32.65;;;17.60;99.90;;;;;;6134447;23;20013;-84
2023/09/18 04:09:37;;;;;;;39.58;36.17;;;17.60;99.90;;;;;;6135002;23;20048;-83
2023/09/18 04:12:05;;;;;;;41.38;37.58;;;17.60;99.90;;;;;;6133837;23;20025;-83
2023/09/18 04:14:31;;;;;;;41.88;38.28;;;17.60;99.90;;;;;;6133785;23;20017;-83
2023/09/18 04:16:57;;;;;;;42.40;38.17;;;17.60;99.90;;;;;;6133879;23;20055;-83
2023/09/18 04:19:22;;;;;;;47.63;43.00;;;17.50;99.90;;;;;;6158868;23;20009;-83
2023/09/18 04:21:48;;;;;;;39.40;35.88;;;17.50;99.90;;;;;;6133947;23;20178;-83
2023/09/18 04:24:14;;;;;;;43.35;39.40;;;17.50;99.90;;;;;;6133685;23;20013;-83
2023/09/18 04:26:39;;;;;;;42.03;38.08;;;17.50;99.90;;;;;;6158412;23;20044;-83
2023/09/18 04:29:05;;;;;;;41.45;37.45;;;17.50;99.90;;;;;;6134440;23;20013;-83
2023/09/18 04:31:31;;;;;;;39.38;35.78;;;17.50;99.90;;;;;;6158286;23;20016;-82
2023/09/18 04:33:57;;;;;;;42.63;38.05;;;17.50;99.90;;;;;;6133820;23;20009;-83
2023/09/18 04:36:23;;;;;;;37.63;34.20;;;17.50;99.90;;;;;;6133574;23;20056;-83
2023/09/18 04:38:48;;;;;;;39.13;35.85;;;17.50;99.90;;;;;;6133415;23;20349;-83
2023/09/18 04:41:14;;;;;;;49.90;41.55;;;17.50;99.90;;;;;;6133665;23;20009;-84
2023/09/18 04:43:40;;;;;;;47.22;42.15;;;17.50;99.90;;;;;;6133746;23;20012;-83
2023/09/18 04:46:06;;;;;;;45.08;40.17;;;17.50;99.90;;;;;;6133858;23;20009;-83
2023/09/18 04:48:32;;;;;;;42.33;38.45;;;17.50;99.90;;;;;;6134243;23;20063;-83
2023/09/18 04:50:59;;;;;;;43.42;39.05;;;17.50;99.90;;;;;;6158447;23;20457;-83
2023/09/18 04:53:26;;;;;;;44.15;39.67;;;17.40;99.90;;;;;;6133519;23;20158;-83
2023/09/18 04:55:52;;;;;;;39.95;35.78;;;17.50;99.90;;;;;;6133339;23;20016;-83
2023/09/18 04:58:18;;;;;;;41.25;37.20;;;17.50;99.90;;;;;;6133984;23;20009;-83
2023/09/18 05:00:44;;;;;;;31.95;29.05;;;17.50;99.90;;;;;;6132684;23;20450;-84
2023/09/18 05:03:10;;;;;;;37.63;33.92;;;17.50;99.90;;;;;;6131649;23;20011;-84
2023/09/18 05:05:36;;;;;;;33.95;30.85;;;17.50;99.90;;;;;;6157794;23;20404;-84
2023/09/18 05:08:07;;;;;;;35.63;32.33;;;17.50;99.90;;;;;;6133190;23;20016;-84
2023/09/18 05:10:33;;;;;;;29.50;27.00;;;17.50;99.90;;;;;;6132479;23;20338;-83
2023/09/18 05:12:59;;;;;;;32.20;29.20;;;17.60;99.90;;;;;;6157074;23;20074;-86
2023/09/18 05:15:26;;;;;;;31.98;29.27;;;17.60;99.90;;;;;;6130551;23;20317;-85
2023/09/18 05:17:56;;;;;;;32.90;30.13;;;17.50;99.90;;;;;;6131306;23;20028;-85
2023/09/18 05:20:26;;;;;;;31.02;28.23;;;17.50;99.90;;;;;;6132688;23;20067;-85
2023/09/18 05:22:55;;;;;;;36.08;32.20;;;17.50;99.90;;;;;;6132525;23;20481;-85
2023/09/18 05:25:26;;;;;;;33.80;30.80;;;17.50;99.90;;;;;;6132614;23;20018;-86
2023/09/18 05:27:56;;;;;;;33.35;29.85;;;17.50;99.90;;;;;;6133662;23;20017;-84
2023/09/18 05:30:29;;;;;;;35.50;31.92;;;17.50;99.90;;;;;;6156134;23;20021;-87
2023/09/18 05:33:04;;;;;;;31.67;28.77;;;17.50;99.90;;;;;;6157356;23;20052;-84
2023/09/18 05:35:36;;;;;;;37.97;34.03;;;17.40;99.90;;;;;;6156511;23;20341;-82
2023/09/18 05:38:03;;;;;;;32.80;29.90;;;17.40;99.90;;;;;;6157176;23;20397;-85
2023/09/18 05:40:29;;;;;;;37.40;33.70;;;17.40;99.90;;;;;;6134687;23;20016;-85
2023/09/18 05:42:55;;;;;;;36.65;32.78;;;17.40;99.90;;;;;;6133480;23;20108;-85
2023/09/18 05:45:21;;;;;;;32.97;30.00;;;17.40;99.90;;;;;;6157736;23;20527;-85
2023/09/18 05:47:48;;;;;;;58.55;42.75;;;17.40;99.90;;;;;;6133108;23;20013;-85
2023/09/18 05:50:14;;;;;;;33.70;30.55;;;17.40;99.90;;;;;;6132666;23;20009;-85
2023/09/18 05:52:40;;;;;;;33.42;30.23;;;17.40;99.90;;;;;;6157847;23;20143;-85
2023/09/18 05:55:09;;;;;;;36.03;32.47;;;17.40;99.90;;;;;;6132149;23;20009;-85
2023/09/18 05:57:35;;;;;;;38.00;34.17;;;17.40;99.90;;;;;;6132225;23;20013;-83
2023/09/18 06:00:01;;;;;;;39.10;35.03;;;17.50;99.90;;;;;;6132429;23;20015;-82
2023/09/18 06:02:27;;;;;;;36.88;33.40;;;17.50;99.90;;;;;;6157780;23;20016;-83
2023/09/18 06:05:06;;;;;;;37.97;34.25;;;17.50;99.90;;;;;;6157242;23;20017;-86
2023/09/18 06:07:32;;;;;;;37.55;33.85;;;17.50;99.90;;;;;;6132038;23;20338;-85
2023/09/18 06:09:58;;;;;;;36.80;33.10;;;17.60;99.90;;;;;;6132845;23;20064;-86
2023/09/18 06:12:24;;;;;;;35.83;32.35;;;17.50;99.90;;;;;;6157426;23;20326;-85
2023/09/18 06:14:50;;;;;;;38.75;34.88;;;17.60;99.90;;;;;;6131269;23;20013;-85
2023/09/18 06:17:17;;;;;;;37.38;33.35;;;17.60;99.90;;;;;;6155085;23;20020;-83
2023/09/18 06:19:43;;;;;;;40.08;36.00;;;17.70;99.90;;;;;;6132925;23;20013;-84
2023/09/18 06:22:09;;;;;;;36.55;32.85;;;17.70;99.90;;;;;;6133115;23;20016;-83
2023/09/18 06:24:35;;;;;;;42.17;37.17;;;17.70;99.90;;;;;;6133304;23;20005;-84
2023/09/18 06:27:01;;;;;;;45.53;36.63;;;17.70;99.90;;;;;;6133135;23;20071;-84
2023/09/18 06:29:26;;;;;;;190.20;57.80;;;17.80;99.90;;;;;;6133204;23;20013;-84
2023/09/18 06:31:52;;;;;;;329.15;78.22;;;17.80;99.90;;;;;;6182462;23;20032;-84
2023/09/18 06:34:18;;;;;;;246.05;78.68;;;17.80;99.90;;;;;;6182489;23;20017;-83
2023/09/18 06:36:43;;;;;;;124.80;63.85;;;17.80;99.90;;;;;;6132763;23;20019;-84
2023/09/18 06:39:09;;;;;;;181.65;67.70;;;17.90;99.90;;;;;;6157826;23;20319;-85
2023/09/18 06:41:34;;;;;;;275.90;85.13;;;17.80;99.90;;;;;;6133192;23;20005;-84
2023/09/18 06:44:03;;;;;;;278.25;90.50;;;17.80;99.90;;;;;;6157712;23;20036;-84
2023/09/18 06:46:30;;;;;;;418.50;109.47;;;17.80;99.90;;;;;;6132797;23;20017;-85
2023/09/18 06:48:56;;;;;;;287.58;95.57;;;17.80;99.90;;;;;;6133096;23;20350;-84
2023/09/18 06:51:23;;;;;;;110.68;65.95;;;17.80;99.90;;;;;;6133119;23;20458;-84
2023/09/18 06:53:48;;;;;;;69.35;53.03;;;17.80;99.90;;;;;;6157687;23;20052;-85
2023/09/18 06:56:14;;;;;;;117.45;66.50;;;17.80;99.90;;;;;;6132894;23;20009;-84
2023/09/18 06:58:39;;;;;;;344.67;106.53;;;17.90;99.90;;;;;;6157753;23;20009;-84
2023/09/18 07:01:09;;;;;;;295.17;89.40;;;17.90;99.90;;;;;;6157925;23;20445;-84
2023/09/18 07:03:36;;;;;;;215.20;81.30;;;17.90;99.90;;;;;;6133227;23;20005;-85
2023/09/18 07:06:02;;;;;;;291.52;95.45;;;17.90;99.90;;;;;;6132715;23;20516;-85
2023/09/18 07:08:28;;;;;;;111.10;68.68;;;17.90;99.90;;;;;;6157633;23;20092;-85
2023/09/18 07:10:53;;;;;;;99.75;62.85;;;18.00;99.90;;;;;;6133296;23;20049;-84
2023/09/18 07:13:19;;;;;;;262.80;85.07;;;18.10;99.90;;;;;;6157806;23;20019;-85
2023/09/18 07:16:46;;;;;;;233.38;82.50;;;18.10;99.90;;;;;;6142771;23;20452;-80
2023/09/18 07:20:07;;;;;;;148.33;67.23;;;18.10;99.90;;;;;;6073057;23;20018;-80
2023/09/18 07:23:09;;;;;;;;;;;18.10;99.90;;;;;;6111689;23;20028;-80
2023/09/18 07:29:10;;;;;;;87.85;56.58;;;18.10;99.90;;;;;;6168622;23;20091;-80
2023/09/18 07:32:37;;;;;;;242.35;77.82;;;18.10;99.90;;;;;;6168887;23;20353;-80
2023/09/18 07:39:19;;;;;;;183.52;66.72;;;18.10;99.90;;;;;;6193278;23;20029;-81
2023/09/18 07:42:38;;;;;;;116.68;61.05;;;18.10;99.90;;;;;;6028362;23;20479;-80
2023/09/18 07:45:50;;;;;;;;;;;18.20;99.90;;;;;;6107956;23;20334;-80
2023/09/18 07:49:16;;;;;;;150.82;65.88;;;18.20;99.90;;;;;;6124940;23;19943;-80
2023/09/18 07:52:42;;;;;;;147.93;61.08;;;18.20;99.90;;;;;;6186710;23;20346;-79
2023/09/18 07:56:08;;;;;;;123.80;60.35;;;18.30;99.90;;;;;;6080223;23;20022;-80
2023/09/18 07:59:07;;;;;;;100.63;55.50;;;18.30;99.90;;;;;;6081276;23;20017;-81
2023/09/18 08:02:17;;;;;;;189.43;70.78;;;18.20;99.90;;;;;;6051964;23;20018;-81
2023/09/18 08:05:37;;;;;;;81.07;50.60;;;18.30;99.90;;;;;;6043665;23;20023;-80
2023/09/18 08:08:26;;;;;;;82.30;52.95;;;18.40;99.90;;;;;;6119433;23;20025;-80
2023/09/18 08:12:00;;;;;;;;;;;;;;;;;;;;;
2023/09/18 08:15:30;;;;;;;156.20;62.80;;;18.50;99.90;;;;;;6192281;23;20013;-80
2023/09/18 08:18:43;;;;;;;126.97;58.15;;;18.50;99.90;;;;;;6163216;23;20083;-81
2023/09/18 08:22:44;;;;;;;70.80;47.72;;;18.60;99.90;;;;;;6117483;23;20341;-80
2023/09/18 08:25:44;;;;;;;181.43;66.32;;;18.60;99.90;;;;;;6017452;23;20015;-80
2023/09/18 08:28:35;;;;;;;98.85;53.83;;;18.60;99.90;;;;;;6072608;23;20025;-80
2023/09/18 08:32:01;;;;;;;57.00;42.10;;;18.70;99.90;;;;;;6163496;23;20404;-79
2023/09/18 08:34:47;;;;;;;64.18;43.47;;;18.70;99.90;;;;;;6162899;23;20096;-79
2023/09/18 08:37:49;;;;;;;61.30;43.05;;;18.70;99.90;;;;;;6165744;23;20017;-79
2023/09/18 08:40:57;;;;;;;67.63;44.58;;;18.70;99.90;;;;;;6179317;23;20065;-80
2023/09/18 08:43:52;;;;;;;;;;;;;;;;;;;;;
2023/09/18 08:47:07;;;;;;;42.95;37.45;;;18.70;99.90;;;;;;6134646;23;20080;-81
2023/09/18 08:50:30;;;;;;;94.88;52.97;;;18.70;99.90;;;;;;6172978;23;20013;-80
2023/09/18 08:57:14;;;;;;;43.22;36.50;;;18.80;99.90;;;;;;6072117;23;20495;-80
2023/09/18 09:03:42;;;;;;;137.57;56.60;;;18.90;99.90;;;;;;6119676;23;20072;-81
2023/09/18 09:06:59;;;;;;;43.42;38.75;;;18.80;99.90;;;;;;6113652;23;20088;-81
2023/09/18 09:09:53;;;;;;;70.88;46.72;;;19.00;99.90;;;;;;6069621;23;20775;-80
2023/09/18 09:12:54;;;;;;;41.20;37.17;;;19.10;99.90;;;;;;6117828;23;20024;-80
2023/09/18 09:19:15;;;;;;;50.08;39.13;;;19.30;99.90;;;;;;6078357;23;20023;-81
2023/09/18 09:32:30;;;;;;;;;;;;;;;;;;;;;
2023/09/18 09:43:03;;;;;;;;;;;;;;;;;;;;;
2023/09/18 09:46:01;;;;;;;21.60;19.52;;;19.90;99.90;;;;;;6071305;23;20070;-80
2023/09/18 09:49:17;;;;;;;26.10;23.75;;;19.90;99.90;;;;;;6045687;23;20026;-81
2023/09/18 10:09:00;;;;;;;21.25;19.60;;;20.20;99.90;;;;;;6197847;23;20402;-81
2023/09/18 10:12:20;;;;;;;17.75;16.17;;;20.30;99.90;;;;;;6170423;23;20021;-80
2023/09/18 10:15:28;;;;;;;19.63;18.08;;;20.20;99.90;;;;;;6029351;23;20018;-81
2023/09/18 10:18:43;;;;;;;15.85;14.55;;;20.30;99.90;;;;;;6007681;23;20106;-80
2023/09/18 10:21:24;;;;;;;18.38;16.88;;;20.40;99.90;;;;;;6032106;23;20351;-84
2023/09/18 10:24:16;;;;;;;15.75;14.45;;;20.50;99.90;;;;;;6099398;23;20477;-84
2023/09/18 10:26:56;;;;;;;14.40;13.20;;;21.00;99.90;;;;;;6123691;23;20096;-84
2023/09/18 10:29:23;;;;;;;14.60;13.27;;;21.30;99.90;;;;;;6123511;23;20021;-84
2023/09/18 10:31:51;;;;;;;10.80;9.90;;;21.60;99.90;;;;;;6099519;23;20529;-82
2023/09/18 10:34:22;;;;;;;10.27;9.27;;;21.90;99.90;;;;;;6099308;23;20049;-84
2023/09/18 10:36:48;;;;;;;8.27;7.60;;;22.00;99.90;;;;;;6098840;23;20098;-83
2023/09/18 10:39:19;;;;;;;11.02;8.98;;;22.00;99.90;;;;;;6099070;23;20065;-83
2023/09/18 10:41:47;;;;;;;8.60;7.70;;;21.80;99.90;;;;;;6123417;23;20085;-85
2023/09/18 10:44:15;;;;;;;10.50;9.57;;;21.40;99.90;;;;;;6123466;23;20061;-83
2023/09/18 10:46:41;;;;;;;10.63;9.73;;;21.30;99.90;;;;;;6123188;23;20071;-85
2023/09/18 10:49:07;;;;;;;7.82;7.03;;;21.10;99.90;;;;;;6123500;23;20536;-85
2023/09/18 10:51:37;;;;;;;10.25;9.25;;;20.90;99.90;;;;;;6123505;23;20113;-84
2023/09/18 10:54:03;;;;;;;13.48;12.27;;;20.70;99.90;;;;;;6099297;23;20010;-84
2023/09/18 10:56:30;;;;;;;9.40;8.63;;;20.50;99.90;;;;;;6123219;23;20014;-84
2023/09/18 10:59:00;;;;;;;9.95;9.05;;;20.50;99.90;;;;;;6099171;23;20038;-83
2023/09/18 11:01:28;;;;;;;9.90;9.00;;;20.50;99.90;;;;;;6100888;23;20006;-84
2023/09/18 11:04:01;;;;;;;8.43;7.70;;;20.50;99.90;;;;;;6100818;23;20017;-83
2023/09/18 11:06:28;;;;;;;9.20;8.30;;;20.60;99.90;;;;;;6125099;23;20018;-83
2023/09/18 11:09:03;;;;;;;10.40;9.50;;;20.60;99.90;;;;;;6125295;23;20067;-84
2023/09/18 11:11:32;;;;;;;9.52;8.70;;;20.60;99.90;;;;;;6100847;23;20435;-83
2023/09/18 11:13:59;;;;;;;8.90;8.00;;;20.60;99.90;;;;;;6100720;23;20052;-83
2023/09/18 11:16:28;;;;;;;7.85;7.22;;;20.50;99.90;;;;;;6100502;23;20042;-83
2023/09/18 11:19:06;;;;;;;7.90;7.13;;;20.30;99.90;;;;;;6100770;23;20401;-82
2023/09/18 11:21:34;;;;;;;9.23;6.70;;;20.40;99.90;;;;;;6125029;23;20069;-82
2023/09/18 11:24:22;;;;;;;8.90;6.82;;;20.20;99.90;;;;;;6125298;23;20038;-83
2023/09/18 11:26:49;;;;;;;9.95;8.52;;;20.00;99.90;;;;;;6124924;23;20025;-83
2023/09/18 11:29:23;;;;;;;9.35;8.50;;;19.90;99.90;;;;;;6124919;23;20020;-83
2023/09/18 11:31:56;;;;;;;9.48;8.50;;;19.90;99.90;;;;;;6100952;23;20394;-82
2023/09/18 11:34:28;;;;;;;11.75;10.75;;;19.80;99.90;;;;;;6100845;23;20387;-86
2023/09/18 11:36:54;;;;;;;7.88;6.97;;;19.80;99.90;;;;;;6100886;23;20018;-83
2023/09/18 11:39:35;;;;;;;9.60;8.63;;;19.60;99.90;;;;;;6125067;23;20006;-85
2023/09/18 11:42:08;;;;;;;11.00;10.10;;;19.50;99.90;;;;;;6100371;23;20017;-83
2023/09/18 11:44:36;;;;;;;13.75;12.43;;;19.50;99.90;;;;;;6100487;23;20010;-83
2023/09/18 11:47:04;;;;;;;11.25;10.23;;;19.60;99.90;;;;;;6100650;23;20069;-83
2023/09/18 11:49:31;;;;;;;9.32;8.43;;;19.60;99.90;;;;;;6100546;23;20014;-82
2023/09/18 11:52:01;;;;;;;10.43;9.43;;;19.90;99.90;;;;;;6100864;23;20481;-83
2023/09/18 11:54:33;;;;;;;9.82;8.95;;;20.10;99.90;;;;;;6100405;23;20036;-82
2023/09/18 11:57:04;;;;;;;8.10;7.35;;;20.30;99.90;;;;;;6100156;23;20018;-83
2023/09/18 11:59:36;;;;;;;9.05;8.15;;;20.50;99.90;;;;;;6100464;23;20013;-83
2023/09/18 12:02:05;;;;;;;10.52;9.43;;;20.50;99.90;;;;;;6100273;23;20497;-84
2023/09/18 12:04:32;;;;;;;9.52;8.70;;;20.40;99.90;;;;;;6100306;23;20014;-83
2023/09/18 12:07:03;;;;;;;10.70;9.48;;;20.60;99.90;;;;;;6100167;23;20025;-83
2023/09/18 12:09:32;;;;;;;10.00;8.80;;;21.10;99.90;;;;;;6100458;23;20018;-83
2023/09/18 12:12:04;;;;;;;7.90;7.07;;;21.50;99.90;;;;;;6100303;23;20379;-81
2023/09/18 12:14:31;;;;;;;7.22;6.63;;;22.00;99.90;;;;;;6124799;23;20397;-83
2023/09/18 12:16:58;;;;;;;9.07;7.50;;;22.30;99.90;;;;;;6124295;23;20352;-83
2023/09/18 12:19:25;;;;;;;10.82;7.35;;;22.40;99.90;;;;;;6100278;23;20017;-83
2023/09/18 12:21:51;;;;;;;8.38;6.68;;;22.60;99.90;;;;;;6124392;23;20123;-83
2023/09/18 12:24:24;;;;;;;7.60;6.68;;;22.80;99.90;;;;;;6100182;23;20014;-83
2023/09/18 12:26:50;;;;;;;;;;;23.20;99.90;;;;;;6100622;23;20013;-83
2023/09/18 12:29:16;;;;;;;8.70;7.70;;;23.30;99.90;;;;;;6100006;23;19913;-83
2023/09/18 12:31:45;;;;;;;9.13;8.20;;;23.30;99.90;;;;;;6100129;23;20550;-83
2023/09/18 12:34:15;;;;;;;8.45;7.65;;;23.10;99.90;;;;;;6099954;23;20014;-84
2023/09/18 12:36:43;;;;;;;9.02;8.13;;;22.50;99.90;;;;;;6099745;23;20014;-84
2023/09/18 12:39:09;;;;;;;9.88;8.68;;;22.10;99.90;;;;;;6100093;23;20033;-83
2023/09/18 12:41:36;;;;;;;8.98;8.13;;;21.80;99.90;;;;;;6099897;23;20462;-83
2023/09/18 12:44:03;;;;;;;9.07;8.18;;;21.60;99.90;;;;;;6124236;23;20021;-83
2023/09/18 12:46:29;;;;;;;9.40;8.40;;;21.90;99.90;;;;;;6099742;23;20105;-83
2023/09/18 12:48:55;;;;;;;8.60;7.80;;;22.40;99.90;;;;;;6099852;23;20037;-81
2023/09/18 12:51:31;;;;;;;10.63;9.70;;;22.80;99.90;;;;;;6099765;23;20093;-82
2023/09/18 12:54:06;;;;;;;8.48;7.78;;;22.80;99.90;;;;;;6124304;23;20029;-84
2023/09/18 12:56:32;;;;;;;8.43;7.13;;;22.70;99.90;;;;;;6099446;23;20014;-83
2023/09/18 12:58:59;;;;;;;9.57;8.23;;;22.70;99.90;;;;;;6099879;23;20013;-82
2023/09/18 13:01:24;;;;;;;7.88;7.13;;;22.70;99.90;;;;;;6099698;23;20017;-82
2023/09/18 13:03:55;;;;;;;9.93;7.22;;;23.00;99.90;;;;;;6124243;23;20014;-83
2023/09/18 13:06:21;;;;;;;6.50;5.82;;;23.30;99.90;;;;;;6123960;23;20017;-86
2023/09/18 13:08:47;;;;;;;9.45;7.32;;;23.50;99.90;;;;;;6100237;23;20346;-81
2023/09/18 13:11:16;;;;;;;9.50;6.68;;;23.60;99.90;;;;;;6099668;23;20010;-82
2023/09/18 13:13:43;;;;;;;11.10;7.22;;;23.70;99.90;;;;;;6123982;23;20075;-83
2023/09/18 13:16:10;;;;;;;8.63;6.13;;;23.90;99.90;;;;;;6099220;23;20024;-83
2023/09/18 13:18:36;;;;;;;7.03;5.97;;;24.00;99.90;;;;;;6124127;23;20017;-83
2023/09/18 13:21:12;;;;;;;8.50;6.43;;;24.00;99.90;;;;;;6099388;23;20011;-83
2023/09/18 13:23:38;;;;;;;7.63;5.50;;;23.80;99.90;;;;;;6099283;23;20025;-83
2023/09/18 13:26:05;;;;;;;7.38;6.68;;;23.40;99.90;;;;;;6099322;23;20014;-85
2023/09/18 13:28:31;;;;;;;7.30;6.00;;;23.10;99.90;;;;;;6099402;23;20010;-82
2023/09/18 13:30:57;;;;;;;7.60;6.53;;;22.90;99.90;;;;;;6099343;23;20013;-83
2023/09/18 13:33:23;;;;;;;8.30;7.30;;;22.90;99.90;;;;;;6099360;23;20018;-83
2023/09/18 13:35:49;;;;;;;7.57;6.57;;;23.10;99.90;;;;;;6123568;23;20013;-82
2023/09/18 13:38:15;;;;;;;7.18;6.47;;;23.30;99.90;;;;;;6099396;23;20093;-82
2023/09/18 13:40:42;;;;;;;8.80;6.78;;;23.40;99.90;;;;;;6099216;23;20463;-83
2023/09/18 13:43:11;;;;;;;6.53;5.82;;;23.30;99.90;;;;;;6099301;23;20014;-83
2023/09/18 13:45:37;;;;;;;6.03;4.53;;;23.10;99.90;;;;;;6099397;23;20029;-83
2023/09/18 13:48:04;;;;;;;6.88;4.13;;;23.10;99.90;;;;;;6099442;23;20014;-83
2023/09/18 13:50:30;;;;;;;6.80;4.43;;;22.90;99.90;;;;;;6099699;23;20363;-82
2023/09/18 13:52:56;;;;;;;6.18;4.13;;;22.70;99.90;;;;;;6099260;23;20097;-82
2023/09/18 13:55:22;;;;;;;7.30;4.40;;;22.60;99.90;;;;;;6123412;23;20101;-83
2023/09/18 13:57:48;;;;;;;6.00;3.90;;;22.60;99.90;;;;;;6123878;23;20045;-83